Time;durP1;ratioP1;P1;durP2;ratioP2;P2;SDS_P1;SDS_P2;PMS_P1;PMS_P2;Temp;Humidity;BMP_temperature;BMP_pressure;BME280_temperature;BME280_humidity;BME280_pressure;Samples;Min_cycle;Max_cycle;Signal;HPM_P1;HPM_P2
2023/10/07 00:03:05;;;;;;;9.45;3.67;;;;;;;12.41;100.00;102092.59;4974063;28;20093;-90
2023/10/07 00:05:42;;;;;;;12.70;4.30;;;;;;;12.41;100.00;102084.53;4973134;28;20043;-90
2023/10/07 00:08:12;;;;;;;8.75;4.10;;;;;;;12.40;100.00;102088.28;4974970;28;20441;-91
2023/10/07 00:10:38;;;;;;;10.47;3.83;;;;;;;12.36;100.00;102084.44;4974241;28;20081;-90
2023/10/07 00:13:13;;;;;;;10.23;3.67;;;;;;;12.35;100.00;102072.06;4974627;28;20042;-90
2023/10/07 00:15:42;;;;;;;12.05;4.05;;;;;;;12.34;100.00;102071.22;4971533;28;20038;-91
2023/10/07 00:18:13;;;;;;;7.60;3.97;;;;;;;12.35;100.00;102069.38;4972359;28;20049;-90
2023/10/07 00:20:41;;;;;;;13.00;4.32;;;;;;;12.32;100.00;102069.84;4973235;28;20031;-90
2023/10/07 00:23:09;;;;;;;8.40;4.13;;;;;;;12.31;100.00;102066.34;4974521;28;20031;-90
2023/10/07 00:25:38;;;;;;;11.98;4.20;;;;;;;12.25;100.00;102060.03;4972760;28;20113;-90
2023/10/07 00:28:18;;;;;;;13.17;4.80;;;;;;;12.29;100.00;102054.19;4974764;28;20116;-91
2023/10/07 00:30:47;;;;;;;10.93;5.03;;;;;;;12.33;100.00;102047.28;4972605;28;20286;-90
2023/10/07 00:33:14;;;;;;;11.23;5.20;;;;;;;12.36;100.00;102052.19;4972986;28;20459;-90
2023/10/07 00:35:40;;;;;;;8.32;4.28;;;;;;;12.41;100.00;102071.91;4972907;28;20019;-91
2023/10/07 00:38:05;;;;;;;10.95;4.60;;;;;;;12.39;100.00;102065.16;4974206;28;20027;-90
2023/10/07 00:40:31;;;;;;;11.97;4.80;;;;;;;12.38;100.00;102071.56;4974001;28;20082;-91
2023/10/07 00:42:57;;;;;;;14.73;4.82;;;;;;;12.34;100.00;102065.84;4973789;28;20061;-89
2023/10/07 00:45:24;;;;;;;19.10;4.93;;;;;;;12.37;100.00;102056.50;4972156;28;20050;-89
2023/10/07 00:47:52;;;;;;;13.88;5.00;;;;;;;12.36;100.00;102062.94;4973452;28;20146;-90
2023/10/07 00:50:20;;;;;;;12.97;5.10;;;;;;;12.34;100.00;102060.47;4972744;28;20474;-90
2023/10/07 00:55:25;;;;;;;11.90;5.13;;;;;;;12.29;100.00;102076.50;4972699;28;20038;-90
2023/10/07 00:57:53;;;;;;;12.30;5.20;;;;;;;12.25;100.00;102069.97;4971939;28;20041;-90
2023/10/07 01:02:46;;;;;;;14.80;5.63;;;;;;;12.20;100.00;102059.94;4973566;28;20152;-90
2023/10/07 01:05:21;;;;;;;13.20;5.90;;;;;;;12.27;100.00;102049.06;4975423;28;20037;-89
2023/10/07 01:07:53;;;;;;;15.60;6.00;;;;;;;12.24;100.00;102036.91;4987229;28;20031;-89
2023/10/07 01:10:24;;;;;;;18.88;5.45;;;;;;;12.23;100.00;102042.53;4977466;28;20029;-89
2023/10/07 01:12:51;;;;;;;10.88;5.60;;;;;;;12.21;100.00;102040.09;4953699;29;20118;-90
2023/10/07 01:15:26;;;;;;;12.87;5.90;;;;;;;12.21;100.00;102042.78;4954163;29;20027;-89
2023/10/07 01:18:05;;;;;;;19.13;6.57;;;;;;;12.19;100.00;102038.69;4958076;28;20321;-90
2023/10/07 01:20:36;;;;;;;15.52;5.97;;;;;;;12.22;100.00;102046.25;4971430;28;20094;-90
2023/10/07 01:23:05;;;;;;;15.73;6.57;;;;;;;12.24;100.00;102050.34;4971870;28;20057;-90
2023/10/07 01:25:31;;;;;;;13.57;6.43;;;;;;;12.20;100.00;102051.88;4971839;28;20391;-90
2023/10/07 01:28:00;;;;;;;19.55;7.05;;;;;;;12.20;100.00;102059.94;4973182;28;20023;-91
2023/10/07 01:30:29;;;;;;;14.77;6.50;;;;;;;12.21;100.00;102058.06;4972105;28;20478;-90
2023/10/07 01:33:02;;;;;;;16.00;6.00;;;;;;;12.23;100.00;102072.88;4971915;28;20623;-90
2023/10/07 01:35:32;;;;;;;14.33;6.10;;;;;;;12.22;100.00;102048.94;4971350;28;20317;-91
2023/10/07 01:38:07;;;;;;;14.32;6.25;;;;;;;12.23;100.00;102061.34;4973213;28;20479;-91
2023/10/07 01:43:19;;;;;;;17.45;6.45;;;;;;;12.18;100.00;102064.75;4972722;28;20027;-91
2023/10/07 01:45:47;;;;;;;18.92;6.63;;;;;;;12.15;100.00;102061.69;4972887;28;20034;-91
2023/10/07 01:48:13;;;;;;;14.27;6.65;;;;;;;12.13;100.00;102051.19;4972433;28;20066;-91
2023/10/07 01:50:44;;;;;;;14.37;6.87;;;;;;;12.13;100.00;102048.50;4971457;28;20555;-90
2023/10/07 01:53:11;;;;;;;16.45;7.03;;;;;;;12.10;100.00;102046.28;4971210;28;20023;-90
2023/10/07 01:55:43;;;;;;;19.02;7.07;;;;;;;12.16;100.00;102037.28;4971297;28;20031;-90
2023/10/07 01:58:13;;;;;;;21.57;7.87;;;;;;;12.20;100.00;102033.09;4972687;28;20034;-90
2023/10/07 02:00:48;;;;;;;18.87;8.10;;;;;;;12.30;100.00;102039.69;4969860;28;20333;-91
2023/10/07 02:03:16;;;;;;;17.75;7.20;;;;;;;12.34;100.00;102040.84;4972858;28;20450;-91
2023/10/07 02:05:51;;;;;;;14.77;7.75;;;;;;;12.42;100.00;102048.50;4970151;28;20119;-91
2023/10/07 02:08:22;;;;;;;22.63;8.75;;;;;;;12.47;100.00;102037.88;4971775;28;20113;-89
2023/10/07 02:10:52;;;;;;;17.50;8.23;;;;;;;12.53;100.00;102042.28;4972065;28;20486;-90
2023/10/07 02:13:19;;;;;;;19.75;7.95;;;;;;;12.57;100.00;102050.69;4971653;28;20018;-90
2023/10/07 02:15:52;;;;;;;19.93;8.37;;;;;;;12.59;100.00;102051.25;4970643;28;20034;-90
2023/10/07 02:18:18;;;;;;;22.35;8.25;;;;;;;12.60;100.00;102039.44;4972327;28;20414;-89
2023/10/07 02:21:07;;;;;;;20.95;8.95;;;;;;;12.57;100.00;102021.94;4972278;28;20094;-90
2023/10/07 02:23:37;;;;;;;21.00;9.18;;;;;;;12.68;100.00;102024.78;4971123;28;20027;-91
2023/10/07 02:26:07;;;;;;;22.08;9.40;;;;;;;12.73;100.00;102041.03;4972314;28;20058;-90
2023/10/07 02:28:35;;;;;;;21.15;9.30;;;;;;;12.76;100.00;102048.63;4976838;28;20046;-90
2023/10/07 02:31:07;;;;;;;22.95;10.00;;;;;;;12.78;100.00;102038.41;4976149;28;20027;-90
2023/10/07 02:33:41;;;;;;;22.10;9.70;;;;;;;12.82;100.00;102028.78;4976069;28;20077;-90
2023/10/07 02:36:21;;;;;;;22.50;9.95;;;;;;;12.87;100.00;102028.88;4978079;28;20090;-90
2023/10/07 02:38:52;;;;;;;20.60;10.55;;;;;;;12.90;100.00;102032.16;4971582;28;20034;-92
2023/10/07 02:41:19;;;;;;;18.80;9.85;;;;;;;12.90;100.00;102037.53;4976669;28;20030;-89
2023/10/07 02:43:51;;;;;;;20.95;10.18;;;;;;;12.96;100.00;102052.72;4994194;28;20023;-90
2023/10/07 02:46:31;;;;;;;18.02;10.05;;;;;;;12.98;100.00;102058.63;4992908;28;20078;-91
2023/10/07 02:49:01;;;;;;;18.43;10.93;;;;;;;12.98;100.00;102045.19;4974646;28;20031;-89
2023/10/07 02:51:27;;;;;;;23.67;11.07;;;;;;;12.97;100.00;102039.00;4969598;28;20019;-91
2023/10/07 02:54:03;;;;;;;28.25;11.88;;;;;;;13.03;100.00;102040.72;4970649;28;20034;-89
2023/10/07 02:56:43;;;;;;;25.63;11.63;;;;;;;13.05;100.00;102043.16;4967571;28;20053;-89
2023/10/07 02:59:22;;;;;;;30.33;11.55;;;;;;;13.07;100.00;102045.59;4960579;28;20050;-89
2023/10/07 03:02:12;;;;;;;26.17;12.10;;;;;;;13.10;100.00;102035.16;4970510;28;20034;-88
2023/10/07 03:04:34;;;;;;;26.95;12.95;;;;;;;13.14;100.00;102046.25;4951303;28;20046;-89
2023/10/07 03:07:07;;;;;;;26.45;12.82;;;;;;;13.16;100.00;102046.81;4952398;28;20463;-89
2023/10/07 03:09:34;;;;;;;25.58;12.55;;;;;;;13.18;100.00;102061.66;4972544;28;20019;-90
2023/10/07 03:12:04;;;;;;;22.83;12.23;;;;;;;13.16;100.00;102046.81;4974985;28;20085;-88
2023/10/07 03:14:29;;;;;;;27.05;12.32;;;;;;;13.17;100.00;102043.06;4970118;28;20623;-89
2023/10/07 03:17:00;;;;;;;27.20;13.20;;;;;;;13.21;100.00;102044.22;4971042;28;20117;-89
2023/10/07 03:19:46;;;;;;;25.33;12.45;;;;;;;13.24;100.00;102048.28;4970959;28;20038;-88
2023/10/07 03:22:15;;;;;;;26.83;12.90;;;;;;;13.24;100.00;102046.41;4970574;28;20039;-89
2023/10/07 03:24:48;;;;;;;29.10;12.75;;;;;;;13.25;100.00;102042.66;4970314;28;20035;-89
2023/10/07 03:27:22;;;;;;;32.22;13.60;;;;;;;13.29;100.00;102038.41;4976742;28;20026;-89
2023/10/07 03:30:12;;;;;;;27.73;13.55;;;;;;;13.29;100.00;102043.78;4990909;28;20034;-89
2023/10/07 03:32:56;;;;;;;25.05;13.10;;;;;;;13.31;100.00;102040.88;4989642;28;20030;-89
2023/10/07 03:35:35;;;;;;;26.38;12.27;;;;;;;13.26;100.00;102040.78;4969351;28;20047;-89
2023/10/07 03:38:13;;;;;;;29.27;13.50;;;;;;;13.33;100.00;102046.78;4970171;28;20141;-90
2023/10/07 03:40:38;;;;;;;30.27;14.33;;;;;;;13.32;100.00;102031.75;4965937;28;20322;-90
2023/10/07 03:43:07;;;;;;;27.60;13.23;;;;;;;13.34;100.00;102040.34;4956094;28;20066;-89
2023/10/07 03:45:32;;;;;;;28.17;14.03;;;;;;;13.39;100.00;102029.66;4950945;28;20434;-89
2023/10/07 03:47:58;;;;;;;26.30;14.83;;;;;;;13.43;100.00;102035.41;4977719;28;20309;-88
2023/10/07 03:50:35;;;;;;;27.40;14.23;;;;;;;13.43;100.00;102027.31;4969193;28;20027;-90
2023/10/07 03:53:05;;;;;;;33.38;14.82;;;;;;;13.46;100.00;102021.44;4971061;28;20035;-89
2023/10/07 03:55:30;;;;;;;29.92;15.25;;;;;;;13.47;100.00;102006.91;4970051;28;20035;-89
2023/10/07 03:57:56;;;;;;;39.37;15.90;;;;;;;13.52;100.00;102016.94;4969769;28;20034;-89
2023/10/07 04:00:28;;;;;;;34.93;16.90;;;;;;;13.50;100.00;102006.44;5001760;28;20030;-89
2023/10/07 04:02:53;;;;;;;36.00;15.80;;;;;;;13.51;100.00;101999.97;4959490;28;20026;-89
2023/10/07 04:05:31;;;;;;;34.77;16.20;;;;;;;13.51;100.00;101991.91;4969928;28;20489;-89
2023/10/07 04:07:57;;;;;;;31.13;16.55;;;;;;;13.56;100.00;101997.38;4969018;28;20031;-90
2023/10/07 04:10:31;;;;;;;36.58;16.52;;;;;;;13.59;100.00;101993.34;4971431;28;20030;-90
2023/10/07 04:12:57;;;;;;;32.97;16.33;;;;;;;13.58;100.00;101989.03;4958020;28;20034;-91
2023/10/07 04:15:28;;;;;;;34.87;17.30;;;;;;;13.63;100.00;101986.41;4967947;28;20479;-90
2023/10/07 04:17:53;;;;;;;32.55;16.00;;;;;;;13.61;100.00;101989.31;4969695;28;20042;-91
2023/10/07 04:20:19;;;;;;;33.40;17.20;;;;;;;13.63;100.00;101989.91;4974304;28;20035;-89
2023/10/07 04:22:57;;;;;;;31.77;16.03;;;;;;;13.64;100.00;101998.81;4971991;28;20125;-88
2023/10/07 04:25:24;;;;;;;34.45;16.35;;;;;;;13.69;100.00;102008.81;4969642;28;20588;-89
2023/10/07 04:27:53;;;;;;;32.47;15.93;;;;;;;13.70;100.00;102011.25;4972659;28;20082;-86
2023/10/07 04:30:39;;;;;;;29.58;15.80;;;;;;;13.72;100.00;102000.25;4974126;28;20018;-87
2023/10/07 04:33:08;;;;;;;32.78;15.93;;;;;;;13.71;100.00;101999.41;4972677;28;20526;-87
2023/10/07 04:35:33;;;;;;;31.57;14.90;;;;;;;13.72;100.00;102000.25;4971840;28;20026;-87
2023/10/07 04:43:35;;;;;;;29.77;14.73;;;;;;;13.75;100.00;102016.72;4973576;28;20038;-87
2023/10/07 04:46:06;;;;;;;29.40;15.40;;;;;;;13.75;100.00;102026.69;4970013;28;20034;-87
2023/10/07 04:48:42;;;;;;;30.70;14.87;;;;;;;13.80;100.00;102012.47;4971642;28;20305;-87
2023/10/07 04:51:12;;;;;;;28.67;13.93;;;;;;;13.79;100.00;102006.25;4972159;28;20023;-87
2023/10/07 04:53:39;;;;;;;25.15;13.90;;;;;;;13.76;100.00;102012.97;4971988;28;20426;-87
2023/10/07 04:56:06;;;;;;;24.75;13.30;;;;;;;13.80;100.00;102026.72;4972294;28;20463;-87
2023/10/07 04:58:32;;;;;;;29.25;13.65;;;;;;;13.80;100.00;102023.25;4973093;28;20082;-88
2023/10/07 05:01:08;;;;;;;27.17;12.60;;;;;;;13.78;100.00;102034.28;4973179;28;20022;-87
2023/10/07 05:03:34;;;;;;;29.10;12.95;;;;;;;13.75;100.00;102026.69;4963319;28;20066;-92
2023/10/07 05:05:59;;;;;;;22.85;11.98;;;;;;;13.77;100.00;102022.66;4960801;28;20046;-88
2023/10/07 05:08:27;;;;;;;26.57;11.60;;;;;;;13.77;100.00;102019.97;4973325;28;20027;-87
2023/10/07 05:10:53;;;;;;;27.08;13.10;;;;;;;13.78;100.00;102020.81;4972958;28;20041;-87
2023/10/07 05:13:20;;;;;;;21.92;11.65;;;;;;;13.80;100.00;102021.34;4974307;28;20019;-87
2023/10/07 05:15:45;;;;;;;25.67;12.05;;;;;;;13.76;100.00;102018.34;4972521;28;20035;-88
2023/10/07 05:18:16;;;;;;;20.57;10.77;;;;;;;13.80;100.00;102024.03;4971712;28;20031;-86
2023/10/07 05:20:46;;;;;;;22.15;11.02;;;;;;;13.80;100.00;102018.66;4972040;28;20038;-87
2023/10/07 05:23:14;;;;;;;26.23;11.02;;;;;;;13.80;100.00;102017.84;4973216;28;20026;-87
2023/10/07 05:25:48;;;;;;;24.92;10.65;;;;;;;13.79;100.00;102033.19;4970418;28;20433;-87
2023/10/07 05:28:20;;;;;;;23.20;10.88;;;;;;;13.81;100.00;102035.66;4972151;28;20027;-86
2023/10/07 05:30:51;;;;;;;18.53;10.60;;;;;;;13.82;100.00;102026.50;4970888;28;20033;-86
2023/10/07 05:33:26;;;;;;;21.77;9.83;;;;;;;13.83;100.00;102018.16;4973380;28;20282;-86
2023/10/07 05:35:54;;;;;;;22.60;10.70;;;;;;;13.85;100.00;102026.00;4970758;28;20025;-88
2023/10/07 05:38:19;;;;;;;21.70;9.85;;;;;;;13.86;100.00;102017.66;4971884;28;20034;-88
2023/10/07 05:40:47;;;;;;;19.33;10.27;;;;;;;13.86;100.00;102006.88;4971893;28;20038;-86
2023/10/07 05:43:12;;;;;;;21.05;9.70;;;;;;;13.85;100.00;101999.88;4973133;28;20027;-87
2023/10/07 05:45:40;;;;;;;24.43;9.93;;;;;;;13.88;100.00;102012.84;4971679;28;20549;-88
2023/10/07 05:48:07;;;;;;;21.58;10.10;;;;;;;13.88;100.00;102001.22;4972430;28;20062;-87
2023/10/07 05:50:33;;;;;;;24.77;9.95;;;;;;;13.89;100.00;102010.94;4974433;28;20031;-89
2023/10/07 05:52:59;;;;;;;23.90;9.63;;;;;;;13.89;100.00;102011.78;4979437;28;20113;-87
2023/10/07 05:55:25;;;;;;;18.60;8.63;;;;;;;13.92;100.00;102015.84;4970832;28;20042;-87
2023/10/07 05:57:52;;;;;;;17.23;9.70;;;;;;;13.93;100.00;102025.56;4972839;28;20630;-87
2023/10/07 06:00:18;;;;;;;20.35;9.60;;;;;;;13.96;100.00;102016.97;4971623;28;20030;-87
2023/10/07 06:02:43;;;;;;;21.80;10.40;;;;;;;13.97;100.00;102009.72;4971332;28;20037;-87
2023/10/07 06:05:10;;;;;;;17.77;9.10;;;;;;;13.99;100.00;102004.88;4970788;28;20842;-87
2023/10/07 06:07:38;;;;;;;20.13;9.52;;;;;;;13.98;100.00;102014.84;4971640;28;20026;-87
2023/10/07 06:10:11;;;;;;;20.80;9.30;;;;;;;14.00;100.00;102022.66;4979465;28;20034;-86
2023/10/07 06:12:37;;;;;;;18.98;9.95;;;;;;;14.04;100.00;102029.19;4974085;28;20117;-86
2023/10/07 06:15:08;;;;;;;18.27;9.40;;;;;;;14.08;100.00;102030.31;4952568;28;20078;-90
2023/10/07 06:17:34;;;;;;;23.73;8.90;;;;;;;14.12;100.00;102030.63;4969520;28;20082;-90
2023/10/07 06:20:04;;;;;;;21.17;9.20;;;;;;;14.13;100.00;102030.38;4969526;28;20085;-87
2023/10/07 06:22:33;;;;;;;20.00;9.23;;;;;;;14.15;100.00;102041.69;4972343;28;20055;-87
2023/10/07 06:25:04;;;;;;;21.95;9.13;;;;;;;14.17;100.00;102030.69;4968236;28;20041;-87
2023/10/07 06:27:29;;;;;;;21.57;9.27;;;;;;;14.21;100.00;102026.41;4972083;28;20039;-87
2023/10/07 06:29:54;;;;;;;21.50;8.95;;;;;;;14.17;100.00;102018.00;4971903;28;20026;-86
2023/10/07 06:32:23;;;;;;;18.93;8.70;;;;;;;14.23;100.00;102033.19;4969673;28;20019;-87
2023/10/07 06:34:51;;;;;;;22.65;8.38;;;;;;;14.24;100.00;102045.59;4967919;28;20026;-86
2023/10/07 06:37:25;;;;;;;14.23;8.05;;;;;;;14.28;100.00;102051.28;4968919;28;20043;-87
2023/10/07 06:39:51;;;;;;;18.83;8.57;;;;;;;14.27;100.00;102060.44;4965537;28;20050;-88
2023/10/07 06:42:21;;;;;;;21.33;8.32;;;;;;;14.29;100.00;102063.69;4963031;28;20467;-85
2023/10/07 06:44:47;;;;;;;17.30;8.15;;;;;;;14.30;100.00;102057.25;4969853;28;20042;-87
2023/10/07 06:47:13;;;;;;;16.97;8.03;;;;;;;14.34;100.00;102055.69;4970511;28;20042;-83
2023/10/07 06:49:39;;;;;;;17.83;8.68;;;;;;;14.36;100.00;102052.72;4970415;28;20030;-84
2023/10/07 06:52:04;;;;;;;17.23;7.53;;;;;;;14.36;100.00;102050.84;4970144;28;20034;-86
2023/10/07 06:54:33;;;;;;;15.70;8.10;;;;;;;14.45;100.00;102055.78;4969759;28;20468;-85
2023/10/07 06:57:01;;;;;;;17.90;7.77;;;;;;;14.53;100.00;102064.22;4970994;28;20389;-84
2023/10/07 06:59:29;;;;;;;15.53;7.63;;;;;;;14.50;100.00;102050.44;4969588;28;20274;-84
2023/10/07 07:01:56;;;;;;;16.92;8.27;;;;;;;14.71;100.00;102069.56;4971435;28;20101;-84
2023/10/07 07:04:25;;;;;;;17.25;7.75;;;;;;;14.72;100.00;102076.56;4971113;28;20015;-85
2023/10/07 07:06:58;;;;;;;15.60;7.47;;;;;;;14.74;100.00;102083.34;4971133;28;20035;-83
2023/10/07 07:12:11;;;;;;;23.27;7.50;;;;;;;14.68;100.00;102066.28;4953978;28;20449;-85
2023/10/07 07:14:37;;;;;;;14.20;7.13;;;;;;;14.77;100.00;102063.94;4967138;28;20030;-85
2023/10/07 07:22:50;;;;;;;16.60;7.03;;;;;;;15.21;100.00;102081.03;4935064;29;20055;-86
2023/10/07 07:25:35;;;;;;;18.13;7.13;;;;;;;15.34;100.00;102082.50;4961265;28;20051;-88
2023/10/07 07:28:01;;;;;;;16.90;6.75;;;;;;;15.47;100.00;102083.91;4964003;28;20066;-88
2023/10/07 07:30:30;;;;;;;15.20;6.53;;;;;;;15.58;100.00;102083.72;4971213;28;20027;-87
2023/10/07 07:32:59;;;;;;;13.27;6.30;;;;;;;15.69;100.00;102091.91;4970975;28;20045;-85
2023/10/07 07:35:39;;;;;;;12.73;6.65;;;;;;;15.69;100.00;102094.59;4968524;28;20026;-86
2023/10/07 07:38:17;;;;;;;18.20;6.47;;;;;;;15.56;100.00;102091.25;4970360;28;20034;-88
2023/10/07 07:40:43;;;;;;;12.87;6.23;;;;;;;15.41;100.00;102089.28;4970931;28;20506;-87
2023/10/07 07:43:08;;;;;;;18.27;6.60;;;;;;;15.33;100.00;102089.75;4968834;28;20389;-87
2023/10/07 07:45:37;;;;;;;18.20;6.43;;;;;;;15.39;100.00;102096.00;4969125;28;20035;-85
2023/10/07 07:48:07;;;;;;;18.25;6.88;;;;;;;15.59;100.00;102090.75;4970497;28;20027;-83
2023/10/07 07:50:35;;;;;;;17.35;6.43;;;;;;;15.84;100.00;102097.38;4970152;28;20027;-85
2023/10/07 07:53:07;;;;;;;13.82;6.45;;;;;;;16.10;100.00;102100.22;4974759;28;20027;-87
2023/10/07 07:55:34;;;;;;;20.92;6.95;;;;;;;16.28;100.00;102090.00;4973856;28;20030;-89
2023/10/07 07:58:02;;;;;;;17.53;6.13;;;;;;;16.37;100.00;102101.94;4972060;28;20042;-87
2023/10/07 08:00:28;;;;;;;14.13;5.60;;;;;;;16.38;100.00;102097.34;4973501;28;20161;-88
2023/10/07 08:02:55;;;;;;;14.32;6.13;;;;;;;16.30;100.00;102096.78;4974639;28;20065;-90
2023/10/07 08:05:21;;;;;;;12.13;5.83;;;;;;;16.26;100.00;102108.38;4974065;28;20050;-86
2023/10/07 08:07:51;;;;;;;15.52;6.32;;;;;;;16.21;100.00;102120.00;4973554;28;20457;-86
2023/10/07 08:10:20;;;;;;;17.00;6.65;;;;;;;16.08;100.00;102115.88;4973795;28;20026;-88
2023/10/07 08:12:47;;;;;;;13.43;6.05;;;;;;;15.97;100.00;102119.63;4971584;28;20065;-84
2023/10/07 08:17:39;;;;;;;10.57;5.87;;;;;;;15.85;100.00;102125.22;4971477;28;20066;-84
2023/10/07 08:20:12;;;;;;;19.73;6.63;;;;;;;15.81;100.00;102119.53;4971942;28;20026;-87
2023/10/07 08:22:45;;;;;;;12.30;6.00;;;;;;;15.82;100.00;102129.25;4966990;28;20325;-87
2023/10/07 08:25:15;;;;;;;13.73;6.18;;;;;;;15.85;100.00;102119.81;4973731;28;20540;-86
2023/10/07 08:27:43;;;;;;;12.30;5.40;;;;;;;15.89;100.00;102120.94;4973855;28;20124;-86
2023/10/07 08:30:10;;;;;;;16.33;6.23;;;;;;;15.89;100.00;102105.53;4973949;28;20385;-87
2023/10/07 08:32:37;;;;;;;17.20;5.97;;;;;;;15.95;100.00;102108.25;4973551;28;20035;-85
2023/10/07 08:35:03;;;;;;;12.15;5.80;;;;;;;15.98;100.00;102107.75;4974433;28;20102;-88
2023/10/07 08:37:35;;;;;;;13.32;5.93;;;;;;;16.03;100.00;102113.19;4972406;28;20026;-88
2023/10/07 08:40:11;;;;;;;16.00;6.00;;;;;;;16.07;100.00;102106.16;4974812;28;20114;-88
2023/10/07 08:42:37;;;;;;;12.95;6.05;;;;;;;16.12;100.00;102102.69;4975002;28;20030;-85
2023/10/07 08:45:14;;;;;;;15.40;5.80;;;;;;;16.15;100.00;102111.06;4974009;28;20077;-87
2023/10/07 08:47:48;;;;;;;14.65;6.43;;;;;;;16.20;100.00;102111.09;4972555;28;20033;-87
2023/10/07 08:50:15;;;;;;;12.87;6.00;;;;;;;16.24;100.00;102111.38;4975856;28;20513;-88
2023/10/07 08:52:43;;;;;;;14.93;5.72;;;;;;;16.23;100.00;102117.06;4979670;28;20033;-88
2023/10/07 08:55:09;;;;;;;12.13;5.88;;;;;;;16.30;100.00;102106.78;4973885;28;20074;-87
2023/10/07 08:57:36;;;;;;;18.90;6.80;;;;;;;16.30;100.00;102104.91;4986620;28;20046;-86
2023/10/07 09:00:11;;;;;;;18.33;6.00;;;;;;;16.33;100.00;102108.97;4974543;28;20035;-88
2023/10/07 09:02:39;;;;;;;15.97;6.17;;;;;;;16.32;100.00;102097.34;4973676;28;20486;-90
2023/10/07 09:05:09;;;;;;;16.37;6.57;;;;;;;16.39;100.00;102093.56;4972361;28;20308;-89
2023/10/07 09:07:36;;;;;;;15.23;6.40;;;;;;;16.43;100.00;102090.03;4976001;28;20499;-90
2023/10/07 09:10:10;;;;;;;14.15;5.82;;;;;;;16.48;100.00;102095.47;4973322;28;20026;-90
2023/10/07 09:12:45;;;;;;;12.52;5.90;;;;;;;16.58;100.00;102099.31;4974176;28;20030;-88
2023/10/07 09:15:21;;;;;;;15.45;6.05;;;;;;;16.61;100.00;102087.94;4973898;28;20105;-94
2023/10/07 09:17:46;;;;;;;12.98;5.68;;;;;;;16.69;100.00;102095.53;4970923;28;20027;-88
2023/10/07 09:20:29;;;;;;;13.97;6.30;;;;;;;16.73;100.00;102102.03;4971778;28;20034;-88
2023/10/07 09:22:57;;;;;;;14.45;5.50;;;;;;;16.78;100.00;102088.50;4978387;28;20034;-89
2023/10/07 09:25:31;;;;;;;13.20;5.57;;;;;;;16.84;100.00;102080.38;4973683;28;20047;-89
2023/10/07 09:27:59;;;;;;;13.90;5.50;;;;;;;16.91;100.00;102086.34;4969364;28;20039;-89
2023/10/07 09:33:21;;;;;;;13.98;4.47;;;;;;;17.08;100.00;102095.03;4969250;28;20036;-87
2023/10/07 09:38:41;;;;;;;14.52;5.20;;;;;;;17.24;100.00;102090.44;4963714;28;20110;-85
2023/10/07 09:43:33;;;;;;;9.73;4.00;;;;;;;17.42;100.00;102101.78;4979419;28;20039;-91
2023/10/07 09:45:58;;;;;;;11.63;4.53;;;;;;;17.46;100.00;102091.22;4977039;28;20113;-91
2023/10/07 09:48:31;;;;;;;12.63;4.33;;;;;;;17.55;100.00;102089.56;4980392;28;20105;-90
2023/10/07 09:51:14;;;;;;;8.98;4.22;;;;;;;17.67;100.00;102095.50;4977933;28;20042;-91
2023/10/07 09:53:51;;;;;;;11.50;4.28;;;;;;;17.76;100.00;102100.34;4982415;28;20461;-93
2023/10/07 09:56:33;;;;;;;10.27;3.87;;;;;;;17.84;100.00;102088.94;4974645;28;20410;-90
2023/10/07 09:59:16;;;;;;;11.07;4.20;;;;;;;17.94;100.00;102093.53;4974687;28;20153;-89
2023/10/07 10:02:24;;;;;;;12.10;4.28;;;;;;;18.01;100.00;102089.47;4972903;28;20034;-88
2023/10/07 10:05:00;;;;;;;11.77;3.60;;;;;;;18.10;100.00;102097.00;4955228;28;20038;-89
2023/10/07 10:08:19;;;;;;;10.35;4.35;;;;;;;18.11;100.00;102082.34;4967682;28;20034;-91
2023/10/07 10:10:49;;;;;;;9.20;4.00;;;;;;;18.13;100.00;102088.31;4952733;29;20066;-92
2023/10/07 10:13:29;;;;;;;9.53;4.30;;;;;;;18.19;100.00;102092.63;4954185;28;20038;-91
2023/10/07 10:16:00;;;;;;;10.77;4.15;;;;;;;18.28;100.00;102101.00;4963170;28;20126;-90
2023/10/07 10:18:38;;;;;;;12.70;3.85;;;;;;;18.36;100.00;102103.09;4972566;28;20031;-89
2023/10/07 10:21:09;;;;;;;9.57;4.00;;;;;;;18.45;100.00;102112.31;4973249;28;20509;-86
2023/10/07 10:23:37;;;;;;;12.18;4.47;;;;;;;18.56;100.00;102126.63;4978656;28;20025;-86
2023/10/07 10:29:04;;;;;;;7.07;3.53;;;;;;;18.65;100.00;102118.69;4944215;29;20089;-92
2023/10/07 10:31:34;;;;;;;8.65;3.17;;;;;;;18.73;100.00;102111.84;4978392;28;20068;-96
2023/10/07 10:34:08;;;;;;;10.55;3.50;;;;;;;18.87;100.00;102120.97;4993840;28;20038;-95
2023/10/07 10:36:55;;;;;;;11.40;3.78;;;;;;;18.96;100.00;102117.72;4974057;28;20029;-96
2023/10/07 10:39:25;;;;;;;9.02;3.90;;;;;;;19.01;100.00;102118.47;4990371;28;20027;-94
2023/10/07 10:44:26;;;;;;;7.83;3.60;;;;;;;19.15;100.00;102118.63;5391399;22;1531477;-94
2023/10/07 10:49:27;;;;;;;9.00;3.57;;;;;;;19.26;100.00;102105.78;5343240;22;20107;-96
2023/10/07 10:54:29;;;;;;;8.15;3.30;;;;;;;19.49;100.00;102100.66;5091456;22;20060;-96
2023/10/07 10:59:47;;;;;;;10.55;3.70;;;;;;;19.65;100.00;102087.72;5596633;22;20045;-96
2023/10/07 11:07:27;;;;;;;10.60;3.93;;;;;;;20.03;100.00;102115.03;5288050;22;20315;-96
2023/10/07 11:09:53;;;;;;;9.07;3.30;;;;;;;20.06;97.56;102105.47;5049647;28;20023;-96
2023/10/07 11:14:48;;;;;;;7.68;3.75;;;;;;;20.11;97.01;102092.63;5007521;28;20065;-95
2023/10/07 11:17:15;;;;;;;7.27;3.10;;;;;;;20.18;95.86;102111.28;4998673;28;20026;-92
2023/10/07 11:19:42;;;;;;;10.18;3.85;;;;;;;20.31;96.85;102109.78;4993229;28;20030;-94
2023/10/07 11:22:12;;;;;;;10.48;3.92;;;;;;;20.39;95.59;102106.41;4991981;28;20114;-92
2023/10/07 11:24:39;;;;;;;9.63;4.60;;;;;;;20.41;96.20;102098.75;5002115;28;20038;-94
2023/10/07 11:27:08;;;;;;;5.78;3.90;;;;;;;20.52;94.98;102093.16;5009130;28;20385;-90
2023/10/07 11:29:34;;;;;;;7.37;4.17;;;;;;;20.64;95.90;102090.78;4998250;28;20381;-93
2023/10/07 11:32:06;;;;;;;10.93;3.50;;;;;;;20.66;95.64;102091.28;4996015;28;20539;-92
2023/10/07 11:34:39;;;;;;;6.75;3.60;;;;;;;20.72;96.11;102092.06;4994587;28;20045;-94
2023/10/07 11:37:18;;;;;;;12.50;3.92;;;;;;;20.78;96.05;102100.97;4992016;28;20022;-89
2023/10/07 11:39:47;;;;;;;12.50;4.10;;;;;;;20.82;93.35;102089.19;4991957;28;20034;-91
2023/10/07 11:42:17;;;;;;;9.03;4.03;;;;;;;20.89;94.50;102096.97;4993466;28;20024;-91
2023/10/07 11:44:46;;;;;;;11.17;4.20;;;;;;;20.93;92.65;102087.09;4992369;28;20317;-91
2023/10/07 11:47:16;;;;;;;8.50;3.85;;;;;;;20.98;92.86;102087.03;4987564;28;20398;-91
2023/10/07 11:49:46;;;;;;;9.85;4.03;;;;;;;21.03;90.81;102091.56;4981814;28;20130;-90
2023/10/07 11:52:12;;;;;;;8.55;4.07;;;;;;;21.07;91.42;102091.78;4994326;28;20045;-91
2023/10/07 11:54:39;;;;;;;10.63;4.40;;;;;;;21.04;92.09;102098.63;4991410;28;20161;-90
2023/10/07 11:57:05;;;;;;;11.17;3.80;;;;;;;21.05;92.53;102099.44;4992471;28;20018;-92
2023/10/07 11:59:33;;;;;;;9.43;3.93;;;;;;;21.14;93.56;102100.38;4992415;28;20847;-90
2023/10/07 12:02:00;;;;;;;11.02;3.92;;;;;;;21.11;92.32;102092.81;5000345;28;20038;-91
2023/10/07 12:04:26;;;;;;;10.52;3.50;;;;;;;21.11;92.94;102096.31;5011153;28;20037;-91
2023/10/07 12:06:52;;;;;;;10.95;4.07;;;;;;;21.21;91.96;102100.78;5001981;28;20030;-90
2023/10/07 12:09:22;;;;;;;12.00;3.67;;;;;;;21.36;91.22;102105.16;4996017;28;20045;-89
2023/10/07 12:11:49;;;;;;;10.00;3.93;;;;;;;21.52;90.60;102102.16;4992393;28;20392;-90
2023/10/07 12:14:18;;;;;;;8.63;3.72;;;;;;;21.53;90.85;102106.50;4992483;28;20485;-90
2023/10/07 12:16:44;;;;;;;10.57;3.95;;;;;;;21.64;88.69;102105.22;4983096;28;20022;-90
2023/10/07 12:19:11;;;;;;;13.97;4.10;;;;;;;21.69;89.41;102098.88;4974871;28;20111;-89